Time;durP1;ratioP1;P1;durP2;ratioP2;P2;SDS_P1;SDS_P2;PMS_P1;PMS_P2;Temp;Humidity;BMP_temperature;BMP_pressure;BME280_temperature;BME280_humidity;BME280_pressure;Samples;Min_cycle;Max_cycle;Signal;HPM_P1;HPM_P2
2022/04/29 00:00:53;;;;;;;;;;;;;;;16.35;48.45;100809.09;4385595;32;20029;-85
2022/04/29 00:03:21;;;;;;;;;;;;;;;16.33;48.84;100810.81;4384420;32;20002;-86
2022/04/29 00:05:48;;;;;;;;;;;;;;;16.08;49.94;100800.19;4385018;32;19986;-86
2022/04/29 00:08:15;;;;;;;;;;;;;;;16.22;49.24;100803.78;4385513;32;19982;-85
2022/04/29 00:10:42;;;;;;;;;;;;;;;16.22;49.46;100809.00;4385212;32;19975;-85
2022/04/29 00:13:10;;;;;;;;;;;;;;;16.23;49.30;100799.41;4383969;32;20005;-85
2022/04/29 00:15:37;;;;;;;;;;;;;;;16.14;49.44;100807.16;4384225;32;20021;-86
2022/04/29 00:18:04;;;;;;;;;;;;;;;16.13;49.24;100808.91;4384084;32;19998;-85
2022/04/29 00:20:31;;;;;;;;;;;;;;;16.01;49.55;100799.22;4384918;32;20296;-86
2022/04/29 00:22:58;;;;;;;;;;;;;;;16.03;48.28;100805.34;4384552;32;20041;-85
2022/04/29 00:25:25;;;;;;;;;;;;;;;15.98;48.71;100806.16;4384792;32;20057;-85
2022/04/29 00:27:51;;;;;;;;;;;;;;;15.99;48.22;100800.09;4387363;32;20049;-85
2022/04/29 00:30:18;;;;;;;;;;;;;;;15.96;48.65;100800.06;4384930;32;20027;-86
2022/04/29 00:32:45;;;;;;;;;;;;;;;15.97;48.35;100805.28;4385050;32;20780;-86
2022/04/29 00:35:12;;;;;;;;;;;;;;;15.93;48.54;100800.03;4383367;32;20006;-86
2022/04/29 00:37:44;;;;;;;;;;;;;;;15.88;48.91;100807.81;4384981;32;20013;-86
2022/04/29 00:40:13;;;;;;;;;;;;;;;15.90;49.39;100800.00;4384932;32;19974;-86
2022/04/29 00:42:40;;;;;;;;;;;;;;;15.81;48.79;100804.25;4384900;32;20046;-86
2022/04/29 00:45:07;;;;;;;;;;;;;;;15.86;48.08;100804.31;4385491;32;19986;-86
2022/04/29 00:47:34;;;;;;;;;;;;;;;15.92;47.48;100793.94;4376805;32;19987;-86
2022/04/29 00:50:00;;;;;;;;;;;;;;;15.88;46.94;100793.88;4384679;32;19975;-85
2022/04/29 00:52:27;;;;;;;;;;;;;;;15.97;46.40;100796.56;4384693;32;19998;-85
2022/04/29 00:55:00;;;;;;;;;;;;;;;15.97;46.29;100793.97;4383934;32;19990;-85
2022/04/29 00:57:28;;;;;;;;;;;;;;;15.94;46.91;100799.16;4383615;32;19987;-85
2022/04/29 00:59:58;;;;;;;;;;;;;;;15.87;47.77;100805.19;4384340;32;19981;-85
2022/04/29 01:02:25;;;;;;;;;;;;;;;15.80;48.78;100810.34;4384484;32;20005;-85
2022/04/29 01:04:59;;;;;;;;;;;;;;;15.72;49.24;100806.75;4384707;32;19992;-85
2022/04/29 01:07:27;;;;;;;;;;;;;;;15.61;50.16;100810.97;4383103;32;19998;-86
2022/04/29 01:09:54;;;;;;;;;;;;;;;15.64;50.49;100813.63;4384849;32;20055;-85
2022/04/29 01:12:22;;;;;;;;;;;;;;;15.49;50.48;100810.84;4374689;32;19995;-86
2022/04/29 01:14:49;;;;;;;;;;;;;;;15.50;50.65;100810.84;4382990;32;19979;-85
2022/04/29 01:17:17;;;;;;;;;;;;;;;15.40;50.33;100805.50;4383610;32;19974;-85
2022/04/29 01:19:43;;;;;;;;;;;;;;;15.25;51.13;100807.09;4384596;32;20046;-85
2022/04/29 01:22:11;;;;;;;;;;;;;;;15.27;51.44;100797.53;4377578;32;20075;-85
2022/04/29 01:24:38;;;;;;;;;;;;;;;15.37;50.54;100797.62;4374813;32;19979;-85
2022/04/29 01:27:11;;;;;;;;;;;;;;;15.39;50.12;100796.81;4369500;32;19994;-85
2022/04/29 01:29:42;;;;;;;;;;;;;;;15.02;51.01;100800.66;4383229;32;20003;-85
2022/04/29 01:32:09;;;;;;;;;;;;;;;14.96;51.15;100795.38;4383194;32;20339;-85
2022/04/29 01:34:37;;;;;;;;;;;;;;;15.06;50.31;100792.03;4074354;32;10002355;-85
2022/04/29 01:37:06;;;;;;;;;;;;;;;15.08;50.76;100785.09;4387055;32;19978;-86
2022/04/29 01:39:33;;;;;;;;;;;;;;;15.07;50.79;100788.59;4386767;32;20033;-85
2022/04/29 01:42:02;;;;;;;;;;;;;;;15.08;51.54;100787.72;4386638;32;19978;-85
2022/04/29 01:44:29;;;;;;;;;;;;;;;14.96;51.84;100784.94;4397453;32;19987;-85
2022/04/29 01:46:56;;;;;;;;;;;;;;;15.03;51.46;100787.66;4386411;32;20005;-85
2022/04/29 01:49:23;;;;;;;;;;;;;;;14.80;51.55;100784.72;4386742;32;19991;-85
2022/04/29 01:51:51;;;;;;;;;;;;;;;14.89;51.06;100784.00;4385753;32;19989;-85
2022/04/29 01:54:17;;;;;;;;;;;;;;;14.85;51.46;100792.63;4386238;32;20709;-85
2022/04/29 01:56:47;;;;;;;;;;;;;;;14.84;51.85;100786.53;4385843;32;19982;-85
2022/04/29 01:59:14;;;;;;;;;;;;;;;14.71;52.13;100789.84;4384692;32;19986;-85
2022/04/29 02:01:46;;;;;;;;;;;;;;;14.85;52.05;100788.28;4385173;32;19974;-85
2022/04/29 02:04:15;;;;;;;;;;;;;;;14.95;51.73;100784.06;4387890;32;19978;-85
2022/04/29 02:06:42;;;;;;;;;;;;;;;14.82;51.92;100788.25;4386500;32;19978;-85
2022/04/29 02:09:09;;;;;;;;;;;;;;;14.75;51.45;100786.41;4386154;32;19986;-84
2022/04/29 02:11:36;;;;;;;;;;;;;;;14.82;50.13;100793.47;4386522;32;19986;-84
2022/04/29 02:14:04;;;;;;;;;;;;;;;14.88;48.81;100788.34;4384776;32;20002;-84
2022/04/29 02:16:31;;;;;;;;;;;;;;;14.94;49.07;100791.88;4386560;32;19990;-84
2022/04/29 02:18:58;;;;;;;;;;;;;;;14.80;49.39;100784.72;4386451;32;20002;-84
2022/04/29 02:21:25;;;;;;;;;;;;;;;14.65;48.87;100779.31;4386102;32;20045;-85
2022/04/29 02:23:53;;;;;;;;;;;;;;;14.80;48.44;100779.50;4385848;32;19990;-84
2022/04/29 02:26:20;;;;;;;;;;;;;;;14.73;48.43;100782.91;4386328;32;19975;-85
2022/04/29 02:28:47;;;;;;;;;;;;;;;14.65;49.03;100779.31;4385960;32;19991;-85
2022/04/29 02:31:14;;;;;;;;;;;;;;;14.78;49.59;100785.59;4386666;32;19979;-84
2022/04/29 02:33:43;;;;;;;;;;;;;;;14.86;48.83;100792.63;4385995;32;19974;-85
2022/04/29 02:36:10;;;;;;;;;;;;;;;14.73;49.71;100782.91;4366580;32;20001;-85
2022/04/29 02:38:38;;;;;;;;;;;;;;;14.73;49.85;100782.91;4386177;32;19982;-84
2022/04/29 02:41:05;;;;;;;;;;;;;;;14.79;49.40;100787.34;4386438;32;19995;-84
2022/04/29 02:43:34;;;;;;;;;;;;;;;14.63;49.75;100786.22;4385352;32;19978;-84
2022/04/29 02:46:01;;;;;;;;;;;;;;;14.62;49.80;100789.69;4371756;32;20410;-84
2022/04/29 02:48:28;;;;;;;;;;;;;;;14.61;49.59;100787.94;4386206;32;20041;-84
2022/04/29 02:50:55;;;;;;;;;;;;;;;14.39;49.46;100787.59;4385923;32;19991;-85
2022/04/29 02:53:22;;;;;;;;;;;;;;;14.51;48.87;100786.03;4373805;32;19979;-84
2022/04/29 02:55:49;;;;;;;;;;;;;;;14.49;48.87;100783.41;4385831;32;20287;-84
2022/04/29 02:58:16;;;;;;;;;;;;;;;14.49;49.56;100790.34;4386311;32;20002;-85
2022/04/29 03:00:43;;;;;;;;;;;;;;;14.37;49.62;100789.28;4384962;32;20304;-84
2022/04/29 03:03:11;;;;;;;;;;;;;;;14.29;49.34;100790.00;4385226;32;20038;-85
2022/04/29 03:05:38;;;;;;;;;;;;;;;14.27;49.61;100792.59;4386132;32;20025;-84
2022/04/29 03:08:05;;;;;;;;;;;;;;;14.29;50.12;100784.78;4386229;32;20005;-84
2022/04/29 03:10:33;;;;;;;;;;;;;;;14.37;49.94;100786.69;4383942;32;20317;-85
2022/04/29 03:13:00;;;;;;;;;;;;;;;14.41;50.08;100787.59;4385190;32;20017;-85
2022/04/29 03:15:28;;;;;;;;;;;;;;;14.23;50.53;100788.19;4385949;32;20309;-84
2022/04/29 03:20:41;;;;;;;;;;;;;;;14.18;50.83;100792.44;4384984;32;20320;-85
2022/04/29 03:23:09;;;;;;;;;;;;;;;14.28;50.57;100791.72;4384694;32;20029;-84
2022/04/29 03:25:37;;;;;;;;;;;;;;;14.24;50.60;100792.53;4385258;32;20470;-85
2022/04/29 03:28:05;;;;;;;;;;;;;;;14.26;50.94;100789.94;4386170;32;20035;-84
2022/04/29 03:30:32;;;;;;;;;;;;;;;14.27;50.76;100786.50;4385857;32;20058;-84
2022/04/29 03:33:00;;;;;;;;;;;;;;;14.36;50.66;100787.53;4383458;32;20044;-84
2022/04/29 03:35:27;;;;;;;;;;;;;;;14.28;50.57;100788.25;4386493;32;19990;-84
2022/04/29 03:37:54;;;;;;;;;;;;;;;14.27;49.76;100787.38;4384604;32;19987;-84
2022/04/29 03:40:22;;;;;;;;;;;;;;;14.32;48.98;100785.72;4383675;32;20303;-86
2022/04/29 03:42:50;;;;;;;;;;;;;;;14.34;49.65;100784.03;4385309;32;20026;-84
2022/04/29 03:45:17;;;;;;;;;;;;;;;14.43;49.00;100784.16;4390270;32;20065;-85
2022/04/29 03:47:44;;;;;;;;;;;;;;;14.26;48.85;100788.22;4399456;32;19986;-85
2022/04/29 03:50:13;;;;;;;;;;;;;;;14.33;50.11;100792.69;4400199;32;19978;-84
2022/04/29 03:52:47;;;;;;;;;;;;;;;14.51;48.37;100796.47;4388904;32;20415;-84
2022/04/29 03:55:15;;;;;;;;;;;;;;;14.54;47.29;100801.72;4396777;32;19994;-85
2022/04/29 03:57:42;;;;;;;;;;;;;;;14.62;47.80;100789.69;4399289;32;19998;-84
2022/04/29 04:00:10;;;;;;;;;;;;;;;14.67;47.86;100802.78;4400848;32;20021;-84
2022/04/29 04:02:42;;;;;;;;;;;;;;;14.55;48.67;100804.38;4400358;32;20562;-84
2022/04/29 04:05:09;;;;;;;;;;;;;;;14.63;48.40;100801.88;4401233;32;20046;-84
2022/04/29 04:07:36;;;;;;;;;;;;;;;14.68;49.34;100804.53;4399856;32;20451;-85
2022/04/29 04:10:05;;;;;;;;;;;;;;;14.62;47.95;100805.34;4400714;32;20005;-85
2022/04/29 04:12:39;;;;;;;;;;;;;;;14.63;48.89;100799.25;4398885;32;20036;-86
2022/04/29 04:15:07;;;;;;;;;;;;;;;14.73;48.57;100793.31;4406570;32;20009;-85
2022/04/29 04:17:35;;;;;;;;;;;;;;;14.61;48.73;100798.34;4399810;32;20359;-84
2022/04/29 04:20:03;;;;;;;;;;;;;;;14.63;48.79;100807.06;4400637;32;19982;-83
2022/04/29 04:22:31;;;;;;;;;;;;;;;14.94;48.67;100807.53;4399715;32;20001;-85
2022/04/29 04:24:58;;;;;;;;;;;;;;;14.83;48.06;100809.97;4392928;32;20006;-85
2022/04/29 04:27:25;;;;;;;;;;;;;;;15.16;48.07;100814.78;4399577;32;19978;-82
2022/04/29 04:29:52;;;;;;;;;;;;;;;15.14;48.03;100805.19;4399277;32;20003;-90
2022/04/29 04:32:19;;;;;;;;;;;;;;;15.06;48.18;100808.56;4400227;32;20005;-82
2022/04/29 04:34:49;;;;;;;;;;;;;;;15.16;47.73;100814.78;4400160;32;19995;-82
2022/04/29 04:37:17;;;;;;;;;;;;;;;15.05;48.58;100825.06;4401022;32;20013;-83
2022/04/29 04:39:45;;;;;;;;;;;;;;;15.31;47.68;100820.16;4399679;32;19996;-81
2022/04/29 04:42:12;;;;;;;;;;;;;;;15.23;47.37;100827.03;4400277;32;19990;-82
2022/04/29 04:44:39;;;;;;;;;;;;;;;15.28;47.44;100825.38;4400420;32;19982;-82
2022/04/29 04:47:06;;;;;;;;;;;;;;;15.33;47.20;100823.69;4392335;32;20042;-82
2022/04/29 04:49:34;;;;;;;;;;;;;;;15.34;47.38;100825.44;4383835;32;19982;-82
2022/04/29 04:52:02;;;;;;;;;;;;;;;15.38;46.77;100831.59;4384150;32;20025;-82
2022/04/29 04:54:29;;;;;;;;;;;;;;;15.58;47.28;100824.00;4384285;32;20094;-82
2022/04/29 04:56:57;;;;;;;;;;;;;;;15.55;47.29;100829.19;4384073;32;19983;-82
2022/04/29 04:59:23;;;;;;;;;;;;;;;15.67;46.57;100824.13;4384784;32;19966;-83
2022/04/29 05:02:03;;;;;;;;;;;;;;;15.84;46.30;100828.66;4384960;32;19975;-82
2022/04/29 05:04:32;;;;;;;;;;;;;;;15.86;46.43;100830.44;4383940;32;20018;-82
2022/04/29 05:07:01;;;;;;;;;;;;;;;15.95;46.63;100824.41;4384477;32;20870;-82
2022/04/29 05:09:28;;;;;;;;;;;;;;;16.04;47.16;100825.38;4386126;32;20113;-82
2022/04/29 05:11:55;;;;;;;;;;;;;;;16.09;47.26;100822.81;4386406;32;19978;-81
2022/04/29 05:14:36;;;;;;;;;;;;;;;16.05;46.77;100826.25;4386070;32;19982;-81
2022/04/29 05:17:03;;;;;;;;;;;;;;;16.07;46.21;100824.53;4386509;32;19986;-82
2022/04/29 05:19:36;;;;;;;;;;;;;;;16.23;46.08;100833.37;4382996;32;19986;-82
2022/04/29 05:22:04;;;;;;;;;;;;;;;16.25;45.65;100829.94;4386856;32;19993;-81
2022/04/29 05:24:31;;;;;;;;;;;;;;;16.33;45.79;100831.72;4385482;32;20374;-79
2022/04/29 05:27:03;;;;;;;;;;;;;;;16.46;45.72;100838.78;4386023;32;20697;-80
2022/04/29 05:29:36;;;;;;;;;;;;;;;16.58;44.49;100838.88;4377782;32;20120;-81
2022/04/29 05:32:05;;;;;;;;;;;;;;;16.59;44.77;100839.75;4386251;32;20363;-81
2022/04/29 05:34:35;;;;;;;;;;;;;;;16.72;43.96;100839.00;4386366;32;20032;-79
2022/04/29 05:37:13;;;;;;;;;;;;;;;16.54;43.94;100837.13;4387269;32;19986;-80
2022/04/29 05:42:28;;;;;;;;;;;;;;;16.76;41.73;100834.72;4385537;32;20009;-81
2022/04/29 05:44:55;;;;;;;;;;;;;;;16.66;42.13;100832.00;4386771;32;20473;-80
2022/04/29 05:47:22;;;;;;;;;;;;;;;16.81;41.99;100826.00;4385223;32;20012;-80
2022/04/29 05:49:49;;;;;;;;;;;;;;;17.17;41.34;100827.97;4386766;32;19978;-80
2022/04/29 05:52:16;;;;;;;;;;;;;;;17.18;41.13;100829.72;4376219;32;20458;-80
2022/04/29 05:54:45;;;;;;;;;;;;;;;17.31;41.06;100821.94;4386300;32;20054;-80
2022/04/29 05:57:12;;;;;;;;;;;;;;;17.34;40.67;100830.66;4373604;32;19991;-80
2022/04/29 05:59:39;;;;;;;;;;;;;;;17.34;40.80;100835.03;4371880;32;20043;-80
2022/04/29 06:02:10;;;;;;;;;;;;;;;17.34;41.40;100835.03;4378356;32;19971;-81
2022/04/29 06:04:38;;;;;;;;;;;;;;;17.35;40.69;100839.38;4373662;32;19993;-80
2022/04/29 06:07:06;;;;;;;;;;;;;;;17.41;40.69;100835.03;4389178;32;20009;-80
2022/04/29 06:09:33;;;;;;;;;;;;;;;17.59;40.54;100842.09;4371309;32;19989;-81
2022/04/29 06:12:00;;;;;;;;;;;;;;;17.75;39.65;100844.78;4371624;32;20063;-81
2022/04/29 06:14:28;;;;;;;;;;;;;;;17.91;39.78;100845.72;4377229;32;19983;-81
2022/04/29 06:16:56;;;;;;;;;;;;;;;17.94;39.35;100841.38;4380012;32;20031;-80
2022/04/29 06:19:27;;;;;;;;;;;;;;;18.10;37.41;100843.13;4385711;32;19991;-81
2022/04/29 06:21:58;;;;;;;;;;;;;;;18.25;37.26;100846.63;4396548;32;20101;-80
2022/04/29 06:24:26;;;;;;;;;;;;;;;18.37;36.33;100846.63;4376422;32;20009;-82
2022/04/29 06:26:53;;;;;;;;;;;;;;;18.49;36.94;100846.66;4382827;32;19983;-82
2022/04/29 06:29:20;;;;;;;;;;;;;;;18.72;36.25;100849.28;4385904;32;19985;-82
2022/04/29 06:31:48;;;;;;;;;;;;;;;18.83;35.91;100844.03;4385937;32;20062;-81
2022/04/29 06:34:16;;;;;;;;;;;;;;;18.98;35.40;100849.22;4386348;32;19986;-84
2022/04/29 06:36:44;;;;;;;;;;;;;;;19.51;34.44;100848.19;4395668;32;19987;-83
2022/04/29 06:39:11;;;;;;;;;;;;;;;19.86;32.25;100847.19;4379260;32;20067;-85
2022/04/29 06:41:42;;;;;;;;;;;;;;;20.37;31.93;100847.69;4386283;32;20017;-85
2022/04/29 06:44:16;;;;;;;;;;;;;;;20.71;30.35;100850.09;4381026;32;19987;-83
2022/04/29 06:46:50;;;;;;;;;;;;;;;21.16;30.91;100850.50;4375274;32;20086;-81
2022/04/29 06:49:21;;;;;;;;;;;;;;;21.48;28.85;100836.09;4375449;32;20037;-81
2022/04/29 06:51:52;;;;;;;;;;;;;;;21.88;28.90;100838.19;4374369;32;19998;-80
2022/04/29 06:54:19;;;;;;;;;;;;;;;21.88;27.46;100840.81;4372441;32;19982;-80
2022/04/29 06:56:47;;;;;;;;;;;;;;;22.01;26.25;100835.31;4377513;32;19987;-81
2022/04/29 06:59:18;;;;;;;;;;;;;;;22.51;25.06;100843.37;4371105;32;20017;-81
2022/04/29 07:01:45;;;;;;;;;;;;;;;22.33;25.59;100838.41;4371077;32;20026;-81
2022/04/29 07:04:12;;;;;;;;;;;;;;;22.80;25.32;100834.94;4372626;32;19979;-81
2022/04/29 07:06:39;;;;;;;;;;;;;;;23.11;24.50;100842.31;4378261;32;20001;-82
2022/04/29 07:09:06;;;;;;;;;;;;;;;23.38;24.57;100832.94;4055441;32;10004274;-81
2022/04/29 07:11:37;;;;;;;;;;;;;;;23.43;23.61;100836.38;4360899;32;20301;-82
2022/04/29 07:14:06;;;;;;;;;;;;;;;23.84;23.67;100837.28;4370018;32;20038;-80
2022/04/29 07:16:34;;;;;;;;;;;;;;;23.88;23.82;100837.16;4369902;32;20045;-81
2022/04/29 07:19:06;;;;;;;;;;;;;;;23.96;23.00;100836.97;4356226;32;20396;-79
2022/04/29 07:21:32;;;;;;;;;;;;;;;23.97;22.49;100836.09;4359875;32;20403;-79
2022/04/29 07:24:00;;;;;;;;;;;;;;;24.01;22.34;100829.81;4370862;32;20006;-80
2022/04/29 07:26:29;;;;;;;;;;;;;;;24.29;23.14;100834.47;4370149;32;19987;-81
2022/04/29 07:28:57;;;;;;;;;;;;;;;24.45;24.42;100841.13;4370931;32;20003;-77
2022/04/29 07:31:24;;;;;;;;;;;;;;;24.56;21.68;100833.78;4369700;32;20001;-78
2022/04/29 07:33:56;;;;;;;;;;;;;;;24.56;22.90;100839.06;4370685;32;19991;-79
2022/04/29 07:41:44;;;;;;;;;;;;;;;24.72;23.28;100838.69;4368081;32;19978;-78
2022/04/29 07:42:12;;;;;;;;;;;;;;;25.04;21.43;100836.03;4370404;32;20003;-79
2022/04/29 07:44:39;;;;;;;;;;;;;;;24.92;21.17;100825.78;4370142;32;19979;-83
2022/04/29 07:47:07;;;;;;;;;;;;;;;25.13;20.03;100839.38;4376927;32;20000;-81
2022/04/29 07:49:35;;;;;;;;;;;;;;;25.09;23.00;100829.75;4385455;32;19986;-80
2022/04/29 07:52:03;;;;;;;;;;;;;;;25.32;19.81;100829.97;4385867;32;19999;-79
2022/04/29 07:54:33;;;;;;;;;;;;;;;25.50;20.77;100829.44;4408530;32;19986;-79
2022/04/29 07:57:00;;;;;;;;;;;;;;;25.48;20.21;100831.25;4406063;32;20049;-80
2022/04/29 07:59:30;;;;;;;;;;;;;;;25.42;19.77;100836.75;4386136;32;20366;-81
2022/04/29 08:01:57;;;;;;;;;;;;;;;25.21;21.24;100832.94;4384585;32;20025;-78
2022/04/29 08:04:26;;;;;;;;;;;;;;;25.27;20.99;100834.53;4385999;32;20309;-77
2022/04/29 08:06:53;;;;;;;;;;;;;;;25.13;19.13;100834.06;4386399;32;20024;-79
2022/04/29 08:09:30;;;;;;;;;;;;;;;25.31;19.56;100822.94;4385999;32;20029;-80
2022/04/29 08:12:05;;;;;;;;;;;;;;;25.75;19.94;100836.66;4385379;32;19979;-79
2022/04/29 08:14:41;;;;;;;;;;;;;;;25.35;21.09;100829.03;4385363;32;19975;-79
2022/04/29 08:17:18;;;;;;;;;;;;;;;25.41;20.13;100826.19;4385178;32;19987;-79
2022/04/29 08:19:45;;;;;;;;;;;;;;;25.52;19.89;100832.91;4385490;32;19995;-78
2022/04/29 08:22:13;;;;;;;;;;;;;;;25.26;19.81;100830.16;4385592;32;20304;-79
2022/04/29 08:24:40;;;;;;;;;;;;;;;25.59;18.41;100827.41;4385065;32;19982;-80
2022/04/29 08:27:08;;;;;;;;;;;;;;;25.56;19.11;100822.19;4409351;32;20853;-80
2022/04/29 08:29:35;;;;;;;;;;;;;;;25.69;19.30;100819.16;4384030;32;20012;-80
2022/04/29 08:32:04;;;;;;;;;;;;;;;25.77;19.38;100829.50;4385549;32;19986;-79
2022/04/29 08:34:33;;;;;;;;;;;;;;;25.77;19.44;100820.69;4386164;32;20126;-79
2022/04/29 08:37:03;;;;;;;;;;;;;;;25.67;18.99;100822.75;4385070;32;19982;-80
2022/04/29 08:39:31;;;;;;;;;;;;;;;25.87;18.66;100823.03;4385318;32;20961;-80
2022/04/29 08:42:01;;;;;;;;;;;;;;;25.87;20.26;100814.22;4384778;32;19982;-80
2022/04/29 08:44:31;;;;;;;;;;;;;;;26.10;19.81;100809.06;4383016;32;20064;-79
2022/04/29 08:47:00;;;;;;;;;;;;;;;25.41;18.70;100811.16;4385573;32;20347;-79
2022/04/29 08:49:27;;;;;;;;;;;;;;;25.31;19.82;100812.34;4385815;32;20038;-80
2022/04/29 08:51:55;;;;;;;;;;;;;;;25.36;19.28;100810.41;4385126;32;20335;-80
2022/04/29 08:59:58;;;;;;;;;;;;;;;25.86;19.48;100800.09;4385560;32;20323;-80
2022/04/29 09:02:27;;;;;;;;;;;;;;;25.48;18.52;100791.50;4384577;32;20074;-80
2022/04/29 09:04:57;;;;;;;;;;;;;;;25.66;19.61;100797.16;4385215;32;19978;-80
2022/04/29 09:07:50;;;;;;;;;;;;;;;25.71;20.02;100796.09;4416565;32;20041;-79
2022/04/29 09:10:17;;;;;;;;;;;;;;;25.72;19.34;100796.97;4392523;32;19981;-80
2022/04/29 09:12:44;;;;;;;;;;;;;;;25.39;17.03;100783.81;4399379;32;20033;-80
2022/04/29 09:15:12;;;;;;;;;;;;;;;25.84;18.58;100785.13;4399777;32;19993;-79
2022/04/29 09:17:43;;;;;;;;;;;;;;;25.92;20.49;100783.97;4399654;32;20858;-79
2022/04/29 09:20:12;;;;;;;;;;;;;;;25.97;19.29;100791.75;4398473;32;19982;-79
2022/04/29 09:22:40;;;;;;;;;;;;;;;25.70;18.92;100785.53;4399684;32;19966;-80
2022/04/29 09:25:08;;;;;;;;;;;;;;;26.04;18.18;100781.81;4400302;32;20403;-79
2022/04/29 09:27:54;;;;;;;;;;;;;;;26.16;17.73;100781.41;4398683;32;19997;-80
2022/04/29 09:30:39;;;;;;;;;;;;;;;26.13;17.59;100776.22;4399988;32;20048;-79
2022/04/29 09:33:18;;;;;;;;;;;;;;;26.16;18.67;100781.41;4398887;32;19992;-81
2022/04/29 09:35:49;;;;;;;;;;;;;;;25.86;19.35;100776.22;4397755;32;19999;-81
2022/04/29 09:41:02;;;;;;;;;;;;;;;25.81;18.99;100775.47;4400139;32;20065;-80
2022/04/29 09:43:35;;;;;;;;;;;;;;;26.09;18.74;100775.44;4399573;32;19982;-81
2022/04/29 09:46:15;;;;;;;;;;;;;;;25.51;19.95;100767.53;4399246;32;20033;-80
2022/04/29 09:48:53;;;;;;;;;;;;;;;25.58;17.21;100768.22;4410127;32;20002;-81
2022/04/29 09:51:39;;;;;;;;;;;;;;;25.43;18.69;100774.00;4399872;32;19982;-80
2022/04/29 09:54:10;;;;;;;;;;;;;;;25.45;17.63;100767.72;4399747;32;20566;-80
2022/04/29 09:56:37;;;;;;;;;;;;;;;25.86;19.58;100762.94;4401621;32;20056;-79
2022/04/29 09:59:05;;;;;;;;;;;;;;;26.17;17.38;100761.94;4402647;32;20394;-80
2022/04/29 10:01:33;;;;;;;;;;;;;;;25.99;17.88;100768.72;4407359;32;20032;-81
2022/04/29 10:04:02;;;;;;;;;;;;;;;25.93;17.59;100763.59;4403747;32;20362;-81
2022/04/29 10:06:33;;;;;;;;;;;;;;;25.61;17.05;100756.66;4403143;32;20033;-80
2022/04/29 10:09:00;;;;;;;;;;;;;;;25.23;17.92;100761.34;4395937;32;20332;-81
2022/04/29 10:11:27;;;;;;;;;;;;;;;24.85;18.92;100759.75;4408545;32;19996;-80
2022/04/29 10:13:55;;;;;;;;;;;;;;;24.62;20.18;100768.34;4397639;32;20034;-81
2022/04/29 10:16:23;;;;;;;;;;;;;;;25.20;18.02;100761.44;4397698;32;19990;-80
2022/04/29 10:21:47;;;;;;;;;;;;;;;25.24;21.03;100749.84;4396901;32;20056;-80
2022/04/29 10:24:16;;;;;;;;;;;;;;;25.72;18.90;100751.91;4396277;32;20313;-84
2022/04/29 10:26:43;;;;;;;;;;;;;;;25.83;19.22;100757.72;4396892;32;19994;-81
2022/04/29 10:29:10;;;;;;;;;;;;;;;25.82;18.33;100755.16;4405561;32;20002;-80
2022/04/29 10:31:37;;;;;;;;;;;;;;;25.97;17.94;100749.31;4404041;32;19975;-80
2022/04/29 10:34:25;;;;;;;;;;;;;;;26.05;17.71;100741.13;4396860;32;20018;-80
2022/04/29 10:36:52;;;;;;;;;;;;;;;26.00;15.89;100735.09;4390617;32;20703;-80
2022/04/29 10:39:20;;;;;;;;;;;;;;;26.21;16.63;100732.56;4399507;32;19986;-81
2022/04/29 10:41:57;;;;;;;;;;;;;;;26.40;16.94;100738.13;4407362;32;20449;-81
2022/04/29 10:44:24;;;;;;;;;;;;;;;26.57;16.48;100744.66;4398053;32;20016;-81
2022/04/29 10:46:50;;;;;;;;;;;;;;;26.38;16.89;100739.09;4405155;32;20014;-82
2022/04/29 10:49:19;;;;;;;;;;;;;;;26.35;19.63;100742.72;4405020;32;20386;-80
2022/04/29 10:51:49;;;;;;;;;;;;;;;25.90;21.49;100738.03;4393387;32;20001;-81
2022/04/29 10:54:46;;;;;;;;;;;;;;;25.46;22.51;100727.06;4398760;32;20840;-81
2022/04/29 10:57:17;;;;;;;;;;;;;;;25.17;20.86;100719.13;4416208;32;19997;-81
2022/04/29 10:59:52;;;;;;;;;;;;;;;24.82;24.36;100724.53;4414926;32;19978;-80
2022/04/29 11:02:32;;;;;;;;;;;;;;;25.05;22.39;100721.22;4395704;32;19996;-80
2022/04/29 11:05:00;;;;;;;;;;;;;;;25.13;22.75;100717.50;4400962;32;20304;-81
2022/04/29 11:07:42;;;;;;;;;;;;;;;25.14;20.83;100708.63;4400573;32;20441;-81
2022/04/29 11:10:13;;;;;;;;;;;;;;;25.09;21.04;100705.22;4412068;32;20003;-81
2022/04/29 11:12:54;;;;;;;;;;;;;;;24.79;21.46;100703.44;4399762;32;20730;-81
2022/04/29 11:15:24;;;;;;;;;;;;;;;24.78;22.45;100712.28;4398606;32;20426;-81
2022/04/29 11:18:11;;;;;;;;;;;;;;;24.69;24.81;100703.72;4399244;32;20005;-79
2022/04/29 11:20:38;;;;;;;;;;;;;;;24.75;22.77;100700.91;4404456;32;20348;-81
2022/04/29 11:25:54;;;;;;;;;;;;;;;25.08;21.15;100692.88;4392449;32;20480;-81
2022/04/29 11:28:22;;;;;;;;;;;;;;;25.38;19.16;100691.97;4400661;32;20280;-82
2022/04/29 11:30:59;;;;;;;;;;;;;;;25.36;21.87;100688.47;4400919;32;20340;-82
2022/04/29 11:33:26;;;;;;;;;;;;;;;24.67;24.94;100687.03;4395703;32;19983;-81
2022/04/29 11:36:00;;;;;;;;;;;;;;;25.03;22.22;100691.22;4399827;32;19974;-82
2022/04/29 11:38:31;;;;;;;;;;;;;;;25.24;22.51;100683.59;4400593;32;19971;-81
2022/04/29 11:41:01;;;;;;;;;;;;;;;25.36;25.75;100677.03;4399392;32;20012;-82
2022/04/29 11:43:29;;;;;;;;;;;;;;;24.90;27.51;100673.12;4411808;32;19979;-82
2022/04/29 11:46:05;;;;;;;;;;;;;;;25.17;25.44;100674.06;4400801;32;19985;-81
2022/04/29 11:48:34;;;;;;;;;;;;;;;24.60;26.46;100673.06;4400285;32;19982;-82
2022/04/29 11:51:01;;;;;;;;;;;;;;;25.03;23.58;100671.81;4400297;32;20092;-81
2022/04/29 11:53:28;;;;;;;;;;;;;;;24.81;22.29;100668.94;4390878;32;19994;-81
2022/04/29 11:55:55;;;;;;;;;;;;;;;24.88;23.62;100670.50;4390648;32;20020;-82
2022/04/29 11:58:22;;;;;;;;;;;;;;;24.46;24.06;100673.47;4402096;32;20001;-83
2022/04/29 12:00:50;;;;;;;;;;;;;;;24.49;23.14;100660.16;4397344;32;20051;-82
2022/04/29 12:03:23;;;;;;;;;;;;;;;24.38;25.97;100654.28;4393355;32;19982;-82
2022/04/29 12:05:51;;;;;;;;;;;;;;;24.83;23.99;100656.53;4406049;32;20020;-82
2022/04/29 12:08:20;;;;;;;;;;;;;;;24.81;22.73;100653.06;4391439;32;20331;-80
2022/04/29 12:10:48;;;;;;;;;;;;;;;24.73;21.88;100649.75;4392752;32;20001;-80
2022/04/29 12:13:14;;;;;;;;;;;;;;;25.06;20.10;100643.44;4404161;32;20260;-80
2022/04/29 12:15:43;;;;;;;;;;;;;;;24.34;20.33;100642.00;4397250;32;20405;-80
2022/04/29 12:18:12;;;;;;;;;;;;;;;24.63;19.92;100640.34;4407201;32;20016;-80
2022/04/29 12:20:55;;;;;;;;;;;;;;;24.44;20.46;100638.25;4411288;32;19997;-79
2022/04/29 12:23:24;;;;;;;;;;;;;;;24.39;20.71;100639.25;4411711;32;20039;-80
2022/04/29 12:25:51;;;;;;;;;;;;;;;24.47;21.44;100638.13;4406540;32;20020;-79
2022/04/29 12:28:19;;;;;;;;;;;;;;;24.34;23.80;100637.59;4407614;32;19986;-81
2022/04/29 12:36:57;;;;;;;;;;;;;;;24.82;26.59;100638.88;4413833;32;19977;-80
2022/04/29 12:39:25;;;;;;;;;;;;;;;25.15;21.47;100620.28;4423034;32;20006;-80
2022/04/29 12:42:09;;;;;;;;;;;;;;;24.98;21.81;100619.00;4407496;32;20056;-82
2022/04/29 12:45:10;;;;;;;;;;;;;;;24.45;24.04;100613.50;4407737;32;19982;-80
2022/04/29 12:47:38;;;;;;;;;;;;;;;24.64;23.48;100613.00;4411490;32;20279;-81
2022/04/29 12:50:31;;;;;;;;;;;;;;;24.39;24.14;100618.94;4404204;32;19997;-80
2022/04/29 12:53:01;;;;;;;;;;;;;;;24.35;23.52;100609.38;4412459;32;20357;-80
2022/04/29 12:55:30;;;;;;;;;;;;;;;24.10;24.14;100607.41;4408135;32;20426;-79
2022/04/29 12:58:27;;;;;;;;;;;;;;;24.31;23.13;100605.06;4411947;32;19970;-79
2022/04/29 13:00:56;;;;;;;;;;;;;;;24.26;23.90;100606.97;4403551;32;20362;-79
2022/04/29 13:03:27;;;;;;;;;;;;;;;24.33;21.76;100596.16;4408132;32;19978;-79
2022/04/29 13:05:55;;;;;;;;;;;;;;;24.10;21.87;100596.81;4422635;32;19997;-79
2022/04/29 13:08:22;;;;;;;;;;;;;;;24.22;22.05;100600.00;4422513;32;19995;-79
2022/04/29 13:10:49;;;;;;;;;;;;;;;24.41;21.22;100589.78;4413495;32;19993;-80
2022/04/29 13:13:16;;;;;;;;;;;;;;;24.66;20.75;100589.97;4421056;32;20015;-80
2022/04/29 13:15:44;;;;;;;;;;;;;;;24.79;21.14;100591.31;4409713;32;20050;-80